This is the latest recevied weather packets stored in our database for station/object EA1GEC-10. If no packets are shown the sender has not sent any weather packets the latest 10 day(s).
| Time | Temp. | Humidity | Pressure | Rain* | Wind** | Luminosity | Snow |
|---|---|---|---|---|---|---|---|
| 1778001971 | 12.78° C | 63% | 1022.1 hPa | - | - | - | - |
| 1778001071 | 13.33° C | 63% | 1022.3 hPa | - | - | - | - |
| 1778000171 | 13.89° C | 62% | 1022.2 hPa | - | - | - | - |
| 1777999271 | 13.33° C | 62% | 1022.3 hPa | - | - | - | - |
| 1777998371 | 12.78° C | 62% | 1022.3 hPa | - | - | - | - |
| 1777997469 | 13.33° C | 60% | 1022.1 hPa | - | - | - | - |
| 1777996569 | 13.89° C | 59% | 1022 hPa | - | - | - | - |
| 1777995669 | 14.44° C | 59% | 1022 hPa | - | - | - | - |
| 1777994769 | 13.89° C | 58% | 1021.9 hPa | - | - | - | - |
| 1777993869 | 15° C | 57% | 1021.9 hPa | - | - | - | - |
| 1777992968 | 15° C | 56% | 1021.9 hPa | - | - | - | - |
| 1777992068 | 16.11° C | 56% | 1021.9 hPa | - | - | - | - |
| 1777991168 | 15.56° C | 55% | 1022 hPa | - | - | - | - |
| 1777988468 | 15.56° C | 60% | 1022.1 hPa | - | - | - | - |
| 1777987568 | 12.22° C | 60% | 1022.3 hPa | - | - | - | - |
| 1777986668 | 13.33° C | 56% | 1022.4 hPa | - | - | - | - |
| 1777985768 | 15.56° C | 49% | 1021.9 hPa | - | - | - | - |
| 1777984868 | 23.89° C | 51% | 1022.2 hPa | - | - | - | - |
| 1777983968 | 13.89° C | 64% | 1022.3 hPa | - | - | - | - |
| 1777983067 | 12.22° C | 64% | 1022.2 hPa | - | - | - | - |
| 1777982167 | 12.78° C | 62% | 1022.3 hPa | - | - | - | - |
| 1777981267 | 12.78° C | 62% | 1022.2 hPa | - | - | - | - |
| 1777980367 | 13.33° C | 60% | 1022.4 hPa | - | - | - | - |
| 1777979467 | 16.11° C | 58% | 1022.1 hPa | - | - | - | - |
| 1777978567 | 16.11° C | 61% | 1022.1 hPa | - | - | - | - |
* Rain since midnight (hover to see other rain measurements)
** Current wind speed in m/s (hover to see current wind gust speed)